CZ-0100 weather

Choteč
Hradec Králové Region, Czech Republic

Public forecast

Using degrees Celsius for public forecast. Weather courtesy of forecast.io.

Closest aviation weather report (METAR) to Choteč

Closest report is Pardubice Airport, 26.5 nm (49.0 km) SSE. Retrieved 2019/12/06 05:00 UTC (22 minutes ago):

LKPD 060500Z 10005KT 9999 OVC015 M02/M05 Q1021 NOSIG RMK WHT WHT

Closest aviation forecast (TAF) to Choteč

Closest forecast is Pardubice Airport, 26.5 nm (49.0 km) SSE. Retrieved 2019-12-06 00:06 UTC (5 hours ago):

TAF LKPD 052300Z 0600/0700 15006KT 9999 BKN015 TEMPO 0601/0606 BKN011 BECMG 0609/0611 CAVOK BECMG 0614/0616 21006KT